Tullamore, Ireland
Current Conditions -  °F | °C
As of 11:00 PM on Friday 28 Nov 2014 (Local Time) from EIME Reporting Station
Broken Clouds Broken Clouds  
Wind Chill: 50°   Ceiling: 900
Heat Index: 50°   Visibility: 6mi
Dew Point: 48°   Wind: 3mph
Humidity: 94%   Direction: 10°N
Pressure: 29.74"   Gusts: NA
Location:  53.28°N, 7.49°W
Report Text: EIME 282300Z 01003KT 9999 BKN009 BKN020 10/09 Q1007
Loading
Personal Weather Stations






























Interactive Weather Map New forecast layout! Learn more

10-Day Weather Forecast

Advertisements
Track Severe Weather on mobile